< Cyclone 198801 1988 Season Cyclone 198803 >
Cyclone 198802 (FREDERIC)
General InformationTrack Information on Google MapsList of All Images || ResourceGoogle EarthGE AnimationAtom FeedGeoJSON
Detalied Best Track (Time Zone = UTC)
Year Month Day Hour Lat. Long. Pressure (hPa) Wind (kt) Class Image Chart
1988 1 28 00 -6.8 99.5 1003 0 0 Image --
1988 1 28 06 -6.7 98.8 1003 0 0 Image --
1988 1 28 12 -6.8 98.3 1002 0 0 Image --
1988 1 28 18 -7.1 98.6 1001 0 0 Image --
1988 1 29 00 -7.5 99.0 1001 0 0 Image --
1988 1 29 06 -8.1 98.6 1000 0 0 Image --
1988 1 29 12 -8.7 98.4 999 0 0 Image --
1988 1 29 18 -9.2 98.1 998 0 0 Image --
1988 1 30 00 -9.9 97.7 996 0 0 Image --
1988 1 30 06 -10.5 97.2 994 0 0 Image --
1988 1 30 09 -11.0 97.1 993 0 0 Image --
1988 1 30 12 -11.5 97.1 992 0 0 Image --
1988 1 30 15 -12.0 97.1 990 0 0 Image --
1988 1 30 18 -12.5 96.8 988 0 0 Image --
1988 1 30 21 -13.1 96.7 985 0 0 Image --
1988 1 31 00 -13.6 96.5 981 0 0 Image --
1988 1 31 06 -15.0 96.2 973 0 0 Image --
1988 1 31 12 -16.1 96.0 961 0 0 Image --
1988 1 31 18 -17.3 95.6 955 0 0 Image --
1988 2 1 00 -18.1 95.5 966 0 0 Image --
1988 2 1 06 -18.7 95.4 978 0 0 Image --
1988 2 1 12 -18.7 95.2 986 0 0 Image --
1988 2 1 18 -18.6 95.1 992 0 0 Image --
1988 2 2 00 -18.5 95.0 1000 0 0 Image --
< Cyclone 198801 1988 Season Cyclone 198803 >

Help